sensor_id;sensor_type;location;lat;lon;timestamp;temperature;humidity
45983;DHT22;31711;47.158;7.346;2023-09-07T00:00:37;17.90;99.90
45983;DHT22;31711;47.158;7.346;2023-09-07T00:03:03;17.90;99.90
45983;DHT22;31711;47.158;7.346;2023-09-07T00:05:30;17.90;99.90
45983;DHT22;31711;47.158;7.346;2023-09-07T00:07:56;17.90;99.90
45983;DHT22;31711;47.158;7.346;2023-09-07T00:10:23;17.90;99.90
45983;DHT22;31711;47.158;7.346;2023-09-07T00:12:51;17.90;99.90
45983;DHT22;31711;47.158;7.346;2023-09-07T00:15:17;17.80;99.90
45983;DHT22;31711;47.158;7.346;2023-09-07T00:17:45;17.70;99.90
45983;DHT22;31711;47.158;7.346;2023-09-07T00:20:11;17.80;99.90
45983;DHT22;31711;47.158;7.346;2023-09-07T00:22:40;17.80;99.90
45983;DHT22;31711;47.158;7.346;2023-09-07T00:25:06;17.80;99.90
45983;DHT22;31711;47.158;7.346;2023-09-07T00:27:33;17.80;99.90
45983;DHT22;31711;47.158;7.346;2023-09-07T00:30:00;17.80;99.90
45983;DHT22;31711;47.158;7.346;2023-09-07T00:32:26;17.70;99.90
45983;DHT22;31711;47.158;7.346;2023-09-07T00:34:52;17.70;99.90
45983;DHT22;31711;47.158;7.346;2023-09-07T00:37:18;17.70;99.90
45983;DHT22;31711;47.158;7.346;2023-09-07T00:39:44;17.70;99.90
45983;DHT22;31711;47.158;7.346;2023-09-07T00:42:10;17.80;99.90
45983;DHT22;31711;47.158;7.346;2023-09-07T00:44:36;17.80;99.90
45983;DHT22;31711;47.158;7.346;2023-09-07T00:47:02;17.70;99.90
45983;DHT22;31711;47.158;7.346;2023-09-07T00:49:28;17.60;99.90
45983;DHT22;31711;47.158;7.346;2023-09-07T00:51:54;17.60;99.90
45983;DHT22;31711;47.158;7.346;2023-09-07T00:54:20;17.60;99.90
45983;DHT22;31711;47.158;7.346;2023-09-07T00:56:46;17.60;99.90
45983;DHT22;31711;47.158;7.346;2023-09-07T00:59:13;17.60;99.90
45983;DHT22;31711;47.158;7.346;2023-09-07T01:01:39;17.60;99.90
45983;DHT22;31711;47.158;7.346;2023-09-07T01:04:05;17.60;99.90
45983;DHT22;31711;47.158;7.346;2023-09-07T01:06:43;17.60;99.90
45983;DHT22;31711;47.158;7.346;2023-09-07T01:09:15;17.50;99.90
45983;DHT22;31711;47.158;7.346;2023-09-07T01:11:43;17.50;99.90
45983;DHT22;31711;47.158;7.346;2023-09-07T01:14:09;17.50;99.90
45983;DHT22;31711;47.158;7.346;2023-09-07T01:16:36;17.40;99.90
45983;DHT22;31711;47.158;7.346;2023-09-07T01:19:06;17.40;99.90
45983;DHT22;31711;47.158;7.346;2023-09-07T01:21:36;17.40;99.90
45983;DHT22;31711;47.158;7.346;2023-09-07T01:24:10;17.30;99.90
45983;DHT22;31711;47.158;7.346;2023-09-07T01:26:37;17.30;99.90
45983;DHT22;31711;47.158;7.346;2023-09-07T01:29:06;17.30;99.90
45983;DHT22;31711;47.158;7.346;2023-09-07T01:31:36;17.30;99.90
45983;DHT22;31711;47.158;7.346;2023-09-07T01:34:04;17.30;99.90
45983;DHT22;31711;47.158;7.346;2023-09-07T01:36:30;17.30;99.90
45983;DHT22;31711;47.158;7.346;2023-09-07T01:38:56;17.30;99.90
45983;DHT22;31711;47.158;7.346;2023-09-07T01:41:22;17.30;99.90
45983;DHT22;31711;47.158;7.346;2023-09-07T01:43:48;17.30;99.90
45983;DHT22;31711;47.158;7.346;2023-09-07T01:46:14;17.20;99.90
45983;DHT22;31711;47.158;7.346;2023-09-07T01:48:40;17.20;99.90
45983;DHT22;31711;47.158;7.346;2023-09-07T01:51:08;17.20;99.90
45983;DHT22;31711;47.158;7.346;2023-09-07T01:53:34;17.10;99.90
45983;DHT22;31711;47.158;7.346;2023-09-07T01:56:00;17.20;99.90
45983;DHT22;31711;47.158;7.346;2023-09-07T01:58:26;17.10;99.90
45983;DHT22;31711;47.158;7.346;2023-09-07T02:00:58;17.10;99.90
45983;DHT22;31711;47.158;7.346;2023-09-07T02:03:25;17.10;99.90
45983;DHT22;31711;47.158;7.346;2023-09-07T02:05:52;17.10;99.90
45983;DHT22;31711;47.158;7.346;2023-09-07T02:08:19;17.00;99.90
45983;DHT22;31711;47.158;7.346;2023-09-07T02:10:45;17.00;99.90
45983;DHT22;31711;47.158;7.346;2023-09-07T02:13:11;17.00;99.90
45983;DHT22;31711;47.158;7.346;2023-09-07T02:15:38;17.00;99.90
45983;DHT22;31711;47.158;7.346;2023-09-07T02:18:05;17.00;99.90
45983;DHT22;31711;47.158;7.346;2023-09-07T02:20:32;16.90;99.90
45983;DHT22;31711;47.158;7.346;2023-09-07T02:22:58;17.00;99.90
45983;DHT22;31711;47.158;7.346;2023-09-07T02:25:24;17.00;99.90
45983;DHT22;31711;47.158;7.346;2023-09-07T02:27:50;17.00;99.90
45983;DHT22;31711;47.158;7.346;2023-09-07T02:30:16;17.00;99.90
45983;DHT22;31711;47.158;7.346;2023-09-07T02:32:43;16.90;99.90
45983;DHT22;31711;47.158;7.346;2023-09-07T02:35:09;16.90;99.90
45983;DHT22;31711;47.158;7.346;2023-09-07T02:37:36;17.00;99.90
45983;DHT22;31711;47.158;7.346;2023-09-07T02:40:02;16.90;99.90
45983;DHT22;31711;47.158;7.346;2023-09-07T02:42:32;16.90;99.90
45983;DHT22;31711;47.158;7.346;2023-09-07T02:44:58;16.80;99.90
45983;DHT22;31711;47.158;7.346;2023-09-07T02:47:24;16.80;99.90
45983;DHT22;31711;47.158;7.346;2023-09-07T02:49:50;16.80;99.90
45983;DHT22;31711;47.158;7.346;2023-09-07T02:52:16;16.80;99.90
45983;DHT22;31711;47.158;7.346;2023-09-07T02:54:41;16.80;99.90
45983;DHT22;31711;47.158;7.346;2023-09-07T02:57:08;16.80;99.90
45983;DHT22;31711;47.158;7.346;2023-09-07T02:59:34;16.80;99.90
45983;DHT22;31711;47.158;7.346;2023-09-07T03:01:59;16.70;99.90
45983;DHT22;31711;47.158;7.346;2023-09-07T03:04:26;16.80;99.90
45983;DHT22;31711;47.158;7.346;2023-09-07T03:06:52;16.80;99.90
45983;DHT22;31711;47.158;7.346;2023-09-07T03:09:18;16.80;99.90
45983;DHT22;31711;47.158;7.346;2023-09-07T03:11:44;16.80;99.90
45983;DHT22;31711;47.158;7.346;2023-09-07T03:14:10;16.70;99.90
45983;DHT22;31711;47.158;7.346;2023-09-07T03:16:36;16.70;99.90
45983;DHT22;31711;47.158;7.346;2023-09-07T03:19:04;16.80;99.90
45983;DHT22;31711;47.158;7.346;2023-09-07T03:21:30;16.70;99.90
45983;DHT22;31711;47.158;7.346;2023-09-07T03:23:57;16.70;99.90
45983;DHT22;31711;47.158;7.346;2023-09-07T03:26:23;16.70;99.90
45983;DHT22;31711;47.158;7.346;2023-09-07T03:28:50;16.70;99.90
45983;DHT22;31711;47.158;7.346;2023-09-07T03:31:17;16.60;99.90
45983;DHT22;31711;47.158;7.346;2023-09-07T03:33:43;16.60;99.90
45983;DHT22;31711;47.158;7.346;2023-09-07T03:36:09;16.60;99.90
45983;DHT22;31711;47.158;7.346;2023-09-07T03:38:36;16.70;99.90
45983;DHT22;31711;47.158;7.346;2023-09-07T03:41:02;16.70;99.90
45983;DHT22;31711;47.158;7.346;2023-09-07T03:43:28;16.60;99.90
45983;DHT22;31711;47.158;7.346;2023-09-07T03:45:54;16.60;99.90
45983;DHT22;31711;47.158;7.346;2023-09-07T03:48:20;16.60;99.90
45983;DHT22;31711;47.158;7.346;2023-09-07T03:50:46;16.60;99.90
45983;DHT22;31711;47.158;7.346;2023-09-07T03:53:12;16.60;99.90
45983;DHT22;31711;47.158;7.346;2023-09-07T03:55:42;16.50;99.90
45983;DHT22;31711;47.158;7.346;2023-09-07T03:58:11;16.50;99.90
45983;DHT22;31711;47.158;7.346;2023-09-07T04:00:41;16.50;99.90
45983;DHT22;31711;47.158;7.346;2023-09-07T04:03:08;16.50;99.90
45983;DHT22;31711;47.158;7.346;2023-09-07T04:05:36;16.50;99.90
45983;DHT22;31711;47.158;7.346;2023-09-07T04:08:02;16.50;99.90
45983;DHT22;31711;47.158;7.346;2023-09-07T04:10:28;16.50;99.90
45983;DHT22;31711;47.158;7.346;2023-09-07T04:12:54;16.50;99.90
45983;DHT22;31711;47.158;7.346;2023-09-07T04:15:20;16.50;99.90
45983;DHT22;31711;47.158;7.346;2023-09-07T04:17:46;16.50;99.90
45983;DHT22;31711;47.158;7.346;2023-09-07T04:20:12;16.50;99.90
45983;DHT22;31711;47.158;7.346;2023-09-07T04:22:39;16.40;99.90
45983;DHT22;31711;47.158;7.346;2023-09-07T04:25:06;16.40;99.90
45983;DHT22;31711;47.158;7.346;2023-09-07T04:27:32;16.40;99.90
45983;DHT22;31711;47.158;7.346;2023-09-07T04:29:58;16.40;99.90
45983;DHT22;31711;47.158;7.346;2023-09-07T04:32:24;16.40;99.90
45983;DHT22;31711;47.158;7.346;2023-09-07T04:34:56;16.40;99.90
45983;DHT22;31711;47.158;7.346;2023-09-07T04:37:23;16.40;99.90
45983;DHT22;31711;47.158;7.346;2023-09-07T04:39:52;16.30;99.90
45983;DHT22;31711;47.158;7.346;2023-09-07T04:42:21;16.30;99.90
45983;DHT22;31711;47.158;7.346;2023-09-07T04:44:47;16.30;99.90
45983;DHT22;31711;47.158;7.346;2023-09-07T04:47:14;16.30;99.90
45983;DHT22;31711;47.158;7.346;2023-09-07T04:49:41;16.30;99.90
45983;DHT22;31711;47.158;7.346;2023-09-07T04:52:07;16.30;99.90
45983;DHT22;31711;47.158;7.346;2023-09-07T04:54:34;16.30;99.90
45983;DHT22;31711;47.158;7.346;2023-09-07T04:57:00;16.30;99.90
45983;DHT22;31711;47.158;7.346;2023-09-07T04:59:26;16.30;99.90
45983;DHT22;31711;47.158;7.346;2023-09-07T05:01:52;16.30;99.90
45983;DHT22;31711;47.158;7.346;2023-09-07T05:04:18;16.30;99.90
45983;DHT22;31711;47.158;7.346;2023-09-07T05:06:44;16.20;99.90
45983;DHT22;31711;47.158;7.346;2023-09-07T05:09:10;16.20;99.90
45983;DHT22;31711;47.158;7.346;2023-09-07T05:11:37;16.30;99.90
45983;DHT22;31711;47.158;7.346;2023-09-07T05:14:03;16.20;99.90
45983;DHT22;31711;47.158;7.346;2023-09-07T05:16:29;16.20;99.90
45983;DHT22;31711;47.158;7.346;2023-09-07T05:18:55;16.10;99.90
45983;DHT22;31711;47.158;7.346;2023-09-07T05:21:21;16.20;99.90
45983;DHT22;31711;47.158;7.346;2023-09-07T05:23:47;16.20;99.90
45983;DHT22;31711;47.158;7.346;2023-09-07T05:26:13;16.30;99.90
45983;DHT22;31711;47.158;7.346;2023-09-07T05:28:40;16.30;99.90
45983;DHT22;31711;47.158;7.346;2023-09-07T05:31:07;16.40;99.90
45983;DHT22;31711;47.158;7.346;2023-09-07T05:33:33;16.30;99.90
45983;DHT22;31711;47.158;7.346;2023-09-07T05:35:59;16.30;99.90
45983;DHT22;31711;47.158;7.346;2023-09-07T05:38:27;16.30;99.90
45983;DHT22;31711;47.158;7.346;2023-09-07T05:40:53;16.40;99.90
45983;DHT22;31711;47.158;7.346;2023-09-07T05:43:20;16.50;99.90
45983;DHT22;31711;47.158;7.346;2023-09-07T05:45:46;16.60;99.90
45983;DHT22;31711;47.158;7.346;2023-09-07T05:48:13;16.70;99.90
45983;DHT22;31711;47.158;7.346;2023-09-07T05:50:42;16.80;99.90
45983;DHT22;31711;47.158;7.346;2023-09-07T05:53:08;16.80;99.90
45983;DHT22;31711;47.158;7.346;2023-09-07T05:55:34;16.80;99.90
45983;DHT22;31711;47.158;7.346;2023-09-07T05:58:04;16.80;99.90
45983;DHT22;31711;47.158;7.346;2023-09-07T06:00:31;16.90;99.90
45983;DHT22;31711;47.158;7.346;2023-09-07T06:02:57;17.00;99.90
45983;DHT22;31711;47.158;7.346;2023-09-07T06:05:23;17.10;99.90
45983;DHT22;31711;47.158;7.346;2023-09-07T06:07:49;17.10;99.90
45983;DHT22;31711;47.158;7.346;2023-09-07T06:10:15;17.10;99.90
45983;DHT22;31711;47.158;7.346;2023-09-07T06:12:41;17.20;99.90
45983;DHT22;31711;47.158;7.346;2023-09-07T06:15:07;17.20;99.90
45983;DHT22;31711;47.158;7.346;2023-09-07T06:17:33;17.40;99.90
45983;DHT22;31711;47.158;7.346;2023-09-07T06:19:59;17.50;99.90
45983;DHT22;31711;47.158;7.346;2023-09-07T06:22:25;17.40;99.90
45983;DHT22;31711;47.158;7.346;2023-09-07T06:24:51;17.40;99.90
45983;DHT22;31711;47.158;7.346;2023-09-07T06:27:17;17.50;99.90
45983;DHT22;31711;47.158;7.346;2023-09-07T06:29:43;17.70;99.90
45983;DHT22;31711;47.158;7.346;2023-09-07T06:32:09;17.70;99.90
45983;DHT22;31711;47.158;7.346;2023-09-07T06:34:35;17.70;99.90
45983;DHT22;31711;47.158;7.346;2023-09-07T06:37:01;17.80;99.90
45983;DHT22;31711;47.158;7.346;2023-09-07T06:39:27;17.90;99.90
45983;DHT22;31711;47.158;7.346;2023-09-07T06:41:53;18.00;99.90
45983;DHT22;31711;47.158;7.346;2023-09-07T06:44:19;18.00;99.90
45983;DHT22;31711;47.158;7.346;2023-09-07T06:46:45;17.90;99.90
45983;DHT22;31711;47.158;7.346;2023-09-07T06:49:12;18.00;99.90
45983;DHT22;31711;47.158;7.346;2023-09-07T06:51:38;18.10;99.90
45983;DHT22;31711;47.158;7.346;2023-09-07T06:54:04;18.20;99.90
45983;DHT22;31711;47.158;7.346;2023-09-07T06:56:30;18.40;99.90
45983;DHT22;31711;47.158;7.346;2023-09-07T06:58:57;18.50;99.90
45983;DHT22;31711;47.158;7.346;2023-09-07T07:01:23;18.60;99.90
45983;DHT22;31711;47.158;7.346;2023-09-07T07:03:49;18.60;99.90
45983;DHT22;31711;47.158;7.346;2023-09-07T07:06:15;18.80;99.90
45983;DHT22;31711;47.158;7.346;2023-09-07T07:08:41;18.90;99.90
45983;DHT22;31711;47.158;7.346;2023-09-07T07:11:07;18.90;99.90
45983;DHT22;31711;47.158;7.346;2023-09-07T07:13:33;19.00;99.90
45983;DHT22;31711;47.158;7.346;2023-09-07T07:15:59;19.20;99.90
45983;DHT22;31711;47.158;7.346;2023-09-07T07:18:25;19.20;99.90
45983;DHT22;31711;47.158;7.346;2023-09-07T07:20:52;19.30;99.90
45983;DHT22;31711;47.158;7.346;2023-09-07T07:23:18;19.40;99.90
45983;DHT22;31711;47.158;7.346;2023-09-07T07:25:44;19.40;99.90
45983;DHT22;31711;47.158;7.346;2023-09-07T07:28:10;19.50;99.90
45983;DHT22;31711;47.158;7.346;2023-09-07T07:30:37;19.60;99.90
45983;DHT22;31711;47.158;7.346;2023-09-07T07:33:04;19.70;99.90
45983;DHT22;31711;47.158;7.346;2023-09-07T07:35:31;19.80;99.90
45983;DHT22;31711;47.158;7.346;2023-09-07T07:37:57;19.80;99.90
45983;DHT22;31711;47.158;7.346;2023-09-07T07:40:23;20.00;99.90
45983;DHT22;31711;47.158;7.346;2023-09-07T07:42:51;20.10;99.90
45983;DHT22;31711;47.158;7.346;2023-09-07T07:45:17;20.20;99.90
45983;DHT22;31711;47.158;7.346;2023-09-07T07:47:50;20.30;99.90
45983;DHT22;31711;47.158;7.346;2023-09-07T07:50:17;20.40;99.90
45983;DHT22;31711;47.158;7.346;2023-09-07T07:52:44;20.50;99.90
45983;DHT22;31711;47.158;7.346;2023-09-07T07:55:10;20.60;99.90
45983;DHT22;31711;47.158;7.346;2023-09-07T07:57:36;20.50;99.90
45983;DHT22;31711;47.158;7.346;2023-09-07T08:00:04;20.60;99.90
45983;DHT22;31711;47.158;7.346;2023-09-07T08:02:31;20.80;99.90
45983;DHT22;31711;47.158;7.346;2023-09-07T08:04:57;20.80;99.90
45983;DHT22;31711;47.158;7.346;2023-09-07T08:07:24;20.90;99.90
45983;DHT22;31711;47.158;7.346;2023-09-07T08:09:51;21.00;99.90
45983;DHT22;31711;47.158;7.346;2023-09-07T08:12:17;21.20;99.90
45983;DHT22;31711;47.158;7.346;2023-09-07T08:14:43;21.20;99.90
45983;DHT22;31711;47.158;7.346;2023-09-07T08:17:09;21.30;99.90
45983;DHT22;31711;47.158;7.346;2023-09-07T08:19:35;21.20;99.90
45983;DHT22;31711;47.158;7.346;2023-09-07T08:22:01;21.30;99.90
45983;DHT22;31711;47.158;7.346;2023-09-07T08:24:30;21.30;99.90
45983;DHT22;31711;47.158;7.346;2023-09-07T08:26:56;21.40;99.90
45983;DHT22;31711;47.158;7.346;2023-09-07T08:29:23;21.40;99.90
45983;DHT22;31711;47.158;7.346;2023-09-07T08:31:55;21.50;99.90
45983;DHT22;31711;47.158;7.346;2023-09-07T08:34:23;21.70;99.90
45983;DHT22;31711;47.158;7.346;2023-09-07T08:36:49;21.70;99.90
45983;DHT22;31711;47.158;7.346;2023-09-07T08:39:20;21.90;99.90
45983;DHT22;31711;47.158;7.346;2023-09-07T08:41:46;22.00;99.90
45983;DHT22;31711;47.158;7.346;2023-09-07T08:44:16;22.00;99.90
45983;DHT22;31711;47.158;7.346;2023-09-07T08:46:43;22.10;99.90
45983;DHT22;31711;47.158;7.346;2023-09-07T08:49:11;22.10;99.90
45983;DHT22;31711;47.158;7.346;2023-09-07T08:51:38;22.20;99.90
45983;DHT22;31711;47.158;7.346;2023-09-07T08:54:05;22.20;99.90
45983;DHT22;31711;47.158;7.346;2023-09-07T08:56:33;22.30;99.90
45983;DHT22;31711;47.158;7.346;2023-09-07T08:58:59;22.50;99.90
45983;DHT22;31711;47.158;7.346;2023-09-07T09:01:25;22.60;99.90
45983;DHT22;31711;47.158;7.346;2023-09-07T09:03:51;22.70;99.90
45983;DHT22;31711;47.158;7.346;2023-09-07T09:06:20;22.70;99.90
45983;DHT22;31711;47.158;7.346;2023-09-07T09:08:50;22.80;99.90
45983;DHT22;31711;47.158;7.346;2023-09-07T09:11:17;22.70;99.90
45983;DHT22;31711;47.158;7.346;2023-09-07T09:13:44;22.80;99.90
45983;DHT22;31711;47.158;7.346;2023-09-07T09:16:11;22.90;99.90
45983;DHT22;31711;47.158;7.346;2023-09-07T09:18:46;23.00;99.90
45983;DHT22;31711;47.158;7.346;2023-09-07T09:21:14;23.20;99.90
45983;DHT22;31711;47.158;7.346;2023-09-07T09:23:40;23.30;99.90
45983;DHT22;31711;47.158;7.346;2023-09-07T09:26:06;23.10;99.90
45983;DHT22;31711;47.158;7.346;2023-09-07T09:28:33;23.20;99.90
45983;DHT22;31711;47.158;7.346;2023-09-07T09:31:03;23.40;99.90
45983;DHT22;31711;47.158;7.346;2023-09-07T09:33:32;23.50;99.90
45983;DHT22;31711;47.158;7.346;2023-09-07T09:36:02;23.40;99.90
45983;DHT22;31711;47.158;7.346;2023-09-07T09:38:28;23.40;99.90
45983;DHT22;31711;47.158;7.346;2023-09-07T09:40:58;23.60;99.90
45983;DHT22;31711;47.158;7.346;2023-09-07T09:43:25;23.60;99.90
45983;DHT22;31711;47.158;7.346;2023-09-07T09:45:52;23.60;99.90
45983;DHT22;31711;47.158;7.346;2023-09-07T09:48:22;23.80;99.90
45983;DHT22;31711;47.158;7.346;2023-09-07T09:50:49;23.90;99.90
45983;DHT22;31711;47.158;7.346;2023-09-07T09:53:16;23.80;99.90
45983;DHT22;31711;47.158;7.346;2023-09-07T09:55:47;23.80;99.90
45983;DHT22;31711;47.158;7.346;2023-09-07T09:58:14;24.00;99.90
45983;DHT22;31711;47.158;7.346;2023-09-07T10:00:49;24.20;99.90
45983;DHT22;31711;47.158;7.346;2023-09-07T10:06:06;24.50;99.90
45983;DHT22;31711;47.158;7.346;2023-09-07T10:08:33;24.60;99.90
45983;DHT22;31711;47.158;7.346;2023-09-07T10:10:59;24.70;99.90
45983;DHT22;31711;47.158;7.346;2023-09-07T10:13:30;24.50;99.90
45983;DHT22;31711;47.158;7.346;2023-09-07T10:16:00;24.70;99.90
45983;DHT22;31711;47.158;7.346;2023-09-07T10:18:33;24.80;99.90
45983;DHT22;31711;47.158;7.346;2023-09-07T10:21:00;24.90;99.90
45983;DHT22;31711;47.158;7.346;2023-09-07T10:23:45;25.10;99.90
45983;DHT22;31711;47.158;7.346;2023-09-07T10:26:13;25.20;99.90
45983;DHT22;31711;47.158;7.346;2023-09-07T10:28:39;25.20;99.90
45983;DHT22;31711;47.158;7.346;2023-09-07T10:31:17;25.20;99.90
45983;DHT22;31711;47.158;7.346;2023-09-07T10:33:44;25.30;99.90
45983;DHT22;31711;47.158;7.346;2023-09-07T10:36:27;25.40;99.90
45983;DHT22;31711;47.158;7.346;2023-09-07T10:38:55;25.30;99.90
45983;DHT22;31711;47.158;7.346;2023-09-07T10:41:22;25.30;99.90
45983;DHT22;31711;47.158;7.346;2023-09-07T10:43:52;25.40;99.90
45983;DHT22;31711;47.158;7.346;2023-09-07T10:46:19;25.40;99.90
45983;DHT22;31711;47.158;7.346;2023-09-07T10:48:52;25.60;99.90
45983;DHT22;31711;47.158;7.346;2023-09-07T10:51:19;25.70;99.90
45983;DHT22;31711;47.158;7.346;2023-09-07T10:53:45;25.80;99.90
45983;DHT22;31711;47.158;7.346;2023-09-07T10:56:11;25.80;99.90
45983;DHT22;31711;47.158;7.346;2023-09-07T10:58:38;25.90;99.90
45983;DHT22;31711;47.158;7.346;2023-09-07T11:01:09;25.80;99.90
45983;DHT22;31711;47.158;7.346;2023-09-07T11:03:36;25.90;99.90
45983;DHT22;31711;47.158;7.346;2023-09-07T11:06:21;25.90;99.90
45983;DHT22;31711;47.158;7.346;2023-09-07T11:08:47;26.10;99.90
45983;DHT22;31711;47.158;7.346;2023-09-07T11:11:13;26.10;99.90
45983;DHT22;31711;47.158;7.346;2023-09-07T11:13:40;26.30;99.90
45983;DHT22;31711;47.158;7.346;2023-09-07T11:16:09;26.20;99.90
45983;DHT22;31711;47.158;7.346;2023-09-07T11:18:36;26.40;99.90
45983;DHT22;31711;47.158;7.346;2023-09-07T11:21:02;26.50;99.90
45983;DHT22;31711;47.158;7.346;2023-09-07T11:23:33;26.60;99.90
45983;DHT22;31711;47.158;7.346;2023-09-07T11:26:06;26.80;99.90
45983;DHT22;31711;47.158;7.346;2023-09-07T11:28:32;26.90;99.90
45983;DHT22;31711;47.158;7.346;2023-09-07T11:30:58;27.00;99.90
45983;DHT22;31711;47.158;7.346;2023-09-07T11:33:25;27.00;99.90
45983;DHT22;31711;47.158;7.346;2023-09-07T11:35:52;27.10;99.90
45983;DHT22;31711;47.158;7.346;2023-09-07T11:38:20;27.10;99.90
45983;DHT22;31711;47.158;7.346;2023-09-07T11:40:46;27.10;99.90
45983;DHT22;31711;47.158;7.346;2023-09-07T11:43:13;27.30;99.90
45983;DHT22;31711;47.158;7.346;2023-09-07T11:45:41;27.40;99.90
45983;DHT22;31711;47.158;7.346;2023-09-07T11:48:07;27.40;99.90
45983;DHT22;31711;47.158;7.346;2023-09-07T11:50:37;27.50;99.90
45983;DHT22;31711;47.158;7.346;2023-09-07T11:53:04;27.50;99.90
45983;DHT22;31711;47.158;7.346;2023-09-07T11:55:31;27.30;99.90
45983;DHT22;31711;47.158;7.346;2023-09-07T11:57:58;27.40;99.90
45983;DHT22;31711;47.158;7.346;2023-09-07T12:00:24;27.50;99.90
45983;DHT22;31711;47.158;7.346;2023-09-07T12:02:50;27.70;99.90
45983;DHT22;31711;47.158;7.346;2023-09-07T12:05:16;27.80;99.90
45983;DHT22;31711;47.158;7.346;2023-09-07T12:07:43;27.80;99.90
45983;DHT22;31711;47.158;7.346;2023-09-07T12:10:09;27.80;99.90
45983;DHT22;31711;47.158;7.346;2023-09-07T12:12:43;27.80;99.90
45983;DHT22;31711;47.158;7.346;2023-09-07T12:15:11;27.90;99.90
45983;DHT22;31711;47.158;7.346;2023-09-07T12:17:37;27.90;99.90
45983;DHT22;31711;47.158;7.346;2023-09-07T12:20:04;27.90;99.90
45983;DHT22;31711;47.158;7.346;2023-09-07T12:22:36;27.80;99.90
45983;DHT22;31711;47.158;7.346;2023-09-07T12:25:04;28.00;99.90
45983;DHT22;31711;47.158;7.346;2023-09-07T12:27:35;28.20;99.90
45983;DHT22;31711;47.158;7.346;2023-09-07T12:30:02;28.30;99.90
45983;DHT22;31711;47.158;7.346;2023-09-07T12:32:28;28.40;99.90
45983;DHT22;31711;47.158;7.346;2023-09-07T12:34:54;28.60;99.90
45983;DHT22;31711;47.158;7.346;2023-09-07T12:37:20;28.70;99.90
45983;DHT22;31711;47.158;7.346;2023-09-07T12:39:49;28.60;99.90
45983;DHT22;31711;47.158;7.346;2023-09-07T12:42:16;28.60;99.90
45983;DHT22;31711;47.158;7.346;2023-09-07T12:44:44;28.70;99.90
45983;DHT22;31711;47.158;7.346;2023-09-07T12:47:10;28.80;99.90
45983;DHT22;31711;47.158;7.346;2023-09-07T12:49:36;29.00;99.90
45983;DHT22;31711;47.158;7.346;2023-09-07T12:52:02;29.10;99.90
45983;DHT22;31711;47.158;7.346;2023-09-07T12:54:37;29.20;99.90
45983;DHT22;31711;47.158;7.346;2023-09-07T12:57:04;29.30;99.90
45983;DHT22;31711;47.158;7.346;2023-09-07T12:59:30;29.30;99.90
45983;DHT22;31711;47.158;7.346;2023-09-07T13:01:56;29.40;99.90
45983;DHT22;31711;47.158;7.346;2023-09-07T13:04:22;29.40;99.90
45983;DHT22;31711;47.158;7.346;2023-09-07T13:06:48;29.70;99.90
45983;DHT22;31711;47.158;7.346;2023-09-07T13:09:14;29.80;99.90
45983;DHT22;31711;47.158;7.346;2023-09-07T13:11:40;29.50;99.90
45983;DHT22;31711;47.158;7.346;2023-09-07T13:14:06;29.50;99.90
45983;DHT22;31711;47.158;7.346;2023-09-07T13:16:34;29.40;99.90
45983;DHT22;31711;47.158;7.346;2023-09-07T13:19:00;29.50;99.90
45983;DHT22;31711;47.158;7.346;2023-09-07T13:21:26;29.70;99.90
45983;DHT22;31711;47.158;7.346;2023-09-07T13:23:52;29.70;99.90
45983;DHT22;31711;47.158;7.346;2023-09-07T13:26:18;30.00;99.90
45983;DHT22;31711;47.158;7.346;2023-09-07T13:28:44;30.20;99.90
45983;DHT22;31711;47.158;7.346;2023-09-07T13:31:10;29.60;99.90
45983;DHT22;31711;47.158;7.346;2023-09-07T13:33:36;29.80;99.90
45983;DHT22;31711;47.158;7.346;2023-09-07T13:36:02;29.80;99.90
45983;DHT22;31711;47.158;7.346;2023-09-07T13:38:28;29.60;99.80
45983;DHT22;31711;47.158;7.346;2023-09-07T13:40:53;29.60;99.90
45983;DHT22;31711;47.158;7.346;2023-09-07T13:43:19;29.60;99.80
45983;DHT22;31711;47.158;7.346;2023-09-07T13:45:45;29.80;99.90
45983;DHT22;31711;47.158;7.346;2023-09-07T13:48:11;30.20;99.90
45983;DHT22;31711;47.158;7.346;2023-09-07T13:50:37;30.50;99.90
45983;DHT22;31711;47.158;7.346;2023-09-07T13:53:03;30.50;99.70
45983;DHT22;31711;47.158;7.346;2023-09-07T13:55:29;30.50;99.90
45983;DHT22;31711;47.158;7.346;2023-09-07T13:57:55;30.60;99.10
45983;DHT22;31711;47.158;7.346;2023-09-07T14:00:21;30.30;98.80
45983;DHT22;31711;47.158;7.346;2023-09-07T14:02:47;30.20;99.20
45983;DHT22;31711;47.158;7.346;2023-09-07T14:05:13;30.00;99.20
45983;DHT22;31711;47.158;7.346;2023-09-07T14:07:39;30.00;99.50
45983;DHT22;31711;47.158;7.346;2023-09-07T14:10:05;29.80;99.80
45983;DHT22;31711;47.158;7.346;2023-09-07T14:12:31;30.00;99.40
45983;DHT22;31711;47.158;7.346;2023-09-07T14:14:57;30.10;99.90
45983;DHT22;31711;47.158;7.346;2023-09-07T14:17:23;30.50;99.90
45983;DHT22;31711;47.158;7.346;2023-09-07T14:19:49;30.40;99.40
45983;DHT22;31711;47.158;7.346;2023-09-07T14:22:15;30.60;99.30
45983;DHT22;31711;47.158;7.346;2023-09-07T14:24:41;30.70;99.40
45983;DHT22;31711;47.158;7.346;2023-09-07T14:27:07;30.80;99.50
45983;DHT22;31711;47.158;7.346;2023-09-07T14:29:35;30.90;99.90
45983;DHT22;31711;47.158;7.346;2023-09-07T14:32:02;30.90;99.60
45983;DHT22;31711;47.158;7.346;2023-09-07T14:34:29;30.60;99.30
45983;DHT22;31711;47.158;7.346;2023-09-07T14:36:55;30.60;99.10
45983;DHT22;31711;47.158;7.346;2023-09-07T14:39:22;30.70;99.90
45983;DHT22;31711;47.158;7.346;2023-09-07T14:41:51;30.90;99.70
45983;DHT22;31711;47.158;7.346;2023-09-07T14:44:19;31.00;99.20
45983;DHT22;31711;47.158;7.346;2023-09-07T14:46:45;31.10;99.80
45983;DHT22;31711;47.158;7.346;2023-09-07T14:49:15;31.00;98.80
45983;DHT22;31711;47.158;7.346;2023-09-07T14:51:44;30.70;99.60
45983;DHT22;31711;47.158;7.346;2023-09-07T14:54:11;30.60;99.40
45983;DHT22;31711;47.158;7.346;2023-09-07T14:56:38;30.70;99.90
45983;DHT22;31711;47.158;7.346;2023-09-07T14:59:05;30.70;99.90
45983;DHT22;31711;47.158;7.346;2023-09-07T15:01:32;30.70;99.50
45983;DHT22;31711;47.158;7.346;2023-09-07T15:03:58;30.70;99.70
45983;DHT22;31711;47.158;7.346;2023-09-07T15:06:24;30.60;99.90
45983;DHT22;31711;47.158;7.346;2023-09-07T15:08:50;30.60;99.90
45983;DHT22;31711;47.158;7.346;2023-09-07T15:11:16;30.60;99.90
45983;DHT22;31711;47.158;7.346;2023-09-07T15:13:42;30.50;99.80
45983;DHT22;31711;47.158;7.346;2023-09-07T15:16:10;30.60;99.60
45983;DHT22;31711;47.158;7.346;2023-09-07T15:18:36;30.40;99.70
45983;DHT22;31711;47.158;7.346;2023-09-07T15:21:03;30.20;99.30
45983;DHT22;31711;47.158;7.346;2023-09-07T15:23:28;30.10;99.70
45983;DHT22;31711;47.158;7.346;2023-09-07T15:25:54;30.20;99.90
45983;DHT22;31711;47.158;7.346;2023-09-07T15:28:21;30.10;99.90
45983;DHT22;31711;47.158;7.346;2023-09-07T15:30:47;30.00;99.80